Time;durP1;ratioP1;P1;durP2;ratioP2;P2;SDS_P1;SDS_P2;PMS_P1;PMS_P2;Temp;Humidity;BMP_temperature;BMP_pressure;BME280_temperature;BME280_humidity;BME280_pressure;Samples;Min_cycle;Max_cycle;Signal;HPM_P1;HPM_P2
2023/06/08 00:01:57;;;;;;;7.57;4.83;;;;;;;;;;5008617;28;20444;-91
2023/06/08 00:04:33;;;;;;;4.97;4.50;;;;;;;;;;5015874;28;20479;-90
2023/06/08 00:13:34;;;;;;;10.03;5.83;;;;;;;;;;5011809;28;20459;-90
2023/06/08 00:21:33;;;;;;;6.00;4.70;;;;;;;;;;5000565;28;20529;-89
2023/06/08 00:24:00;;;;;;;8.97;5.17;;;;;;;;;;5003386;28;20631;-90
2023/06/08 00:29:48;;;;;;;6.37;4.73;;;;;;;;;;5033662;23;20484;-88
2023/06/08 00:32:25;;;;;;;5.33;4.83;;;;;;;;;;5003855;28;20436;-89
2023/06/08 00:34:54;;;;;;;7.27;4.90;;;;;;;;;;5005254;28;20506;-89
2023/06/08 00:37:23;;;;;;;5.97;4.87;;;;;;;;;;5005046;28;20453;-89
2023/06/08 00:39:55;;;;;;;6.20;4.63;;;;;;;;;;5004836;28;20444;-89
2023/06/08 00:50:41;;;;;;;5.00;4.50;;;;;;;;;;5005294;28;20476;-89
2023/06/08 00:53:17;;;;;;;5.73;4.97;;;;;;;;;;5014834;28;20517;-90
2023/06/08 00:55:46;;;;;;;5.67;4.77;;;;;;;;;;5020756;28;20421;-90
2023/06/08 00:58:28;;;;;;;5.67;4.10;;;;;;;;;;5013622;28;20476;-90
2023/06/08 01:04:14;;;;;;;5.37;4.87;;;;;;;;;;4999629;28;20448;-90
2023/06/08 01:06:54;;;;;;;7.80;5.33;;;19.80;99.90;;;;;;5002007;28;21008;-90
2023/06/08 01:18:18;;;;;;;7.10;4.83;;;19.60;99.90;;;;;;4999937;28;20460;-90
2023/06/08 01:21:02;;;;;;;5.90;5.33;;;19.70;99.90;;;;;;5001497;28;20486;-90
2023/06/08 01:23:45;;;;;;;7.67;5.60;;;19.70;99.90;;;;;;5001430;28;20509;-90
2023/06/08 01:26:18;;;;;;;5.07;4.43;;;;;;;;;;5001840;28;20452;-90
2023/06/08 01:28:50;;;;;;;6.20;4.47;;;;;;;;;;5003857;28;20480;-89
2023/06/08 01:31:20;;;;;;;5.23;4.73;;;;;;;;;;5004403;28;20484;-89
2023/06/08 01:33:47;;;;;;;4.97;4.47;;;;;;;;;;5008064;28;20438;-89
2023/06/08 01:36:22;;;;;;;6.57;4.83;;;19.70;99.90;;;;;;5004119;28;20924;-90
2023/06/08 01:38:59;;;;;;;5.20;4.70;;;19.80;99.90;;;;;;5001049;28;20477;-90
2023/06/08 01:41:29;;;;;;;4.93;4.50;;;19.80;99.90;;;;;;5000881;28;20437;-90
2023/06/08 01:43:59;;;;;;;5.40;4.90;;;19.80;99.90;;;;;;5000560;28;20560;-89
2023/06/08 01:46:31;;;;;;;5.20;4.63;;;19.70;99.90;;;;;;5000324;28;20441;-90
2023/06/08 01:49:02;;;;;;;5.13;4.63;;;19.70;99.90;;;;;;5000917;28;20473;-89
2023/06/08 01:51:31;;;;;;;6.20;4.77;;;;;;;;;;5000755;28;20476;-90
2023/06/08 02:00:40;;;;;;;6.23;4.83;;;19.60;99.90;;;;;;4981675;28;20433;-90
2023/06/08 02:08:28;;;;;;;5.83;5.23;;;;;;;;;;4888761;23;20556;-92
2023/06/08 02:10:56;;;;;;;6.17;5.17;;;;;;;;;;5006232;28;20499;-89
2023/06/08 02:14:11;;;;;;;5.73;5.20;;;19.40;99.90;;;;;;5012593;28;20465;-89
2023/06/08 02:16:40;;;;;;;5.70;5.10;;;;;;;;;;5010341;28;20528;-89
2023/06/08 02:19:13;;;;;;;6.53;5.90;;;;;;;;;;5012053;28;20508;-89
2023/06/08 02:24:24;;;;;;;6.93;5.10;;;;;;;;;;5003156;28;20475;-89
2023/06/08 02:26:58;;;;;;;5.50;5.00;;;;;;;;;;5006453;28;20445;-89
2023/06/08 02:29:28;;;;;;;7.20;5.60;;;;;;;;;;5005251;28;20435;-89
2023/06/08 02:31:55;;;;;;;5.50;5.00;;;;;;;;;;5004633;28;20456;-89
2023/06/08 02:34:25;;;;;;;5.73;4.80;;;;;;;;;;5004865;28;20507;-89
2023/06/08 02:36:53;;;;;;;8.63;5.60;;;;;;;;;;5001277;28;20444;-90
2023/06/08 02:39:21;;;;;;;5.27;4.80;;;;;;;;;;5002362;28;20477;-89
2023/06/08 02:42:18;;;;;;;5.63;5.13;;;18.90;99.90;;;;;;5002615;28;20460;-89
2023/06/08 02:44:46;;;;;;;7.23;5.83;;;;;;;;;;5002255;28;20475;-89
2023/06/08 02:47:14;;;;;;;8.47;5.87;;;18.90;99.90;;;;;;5002485;28;20483;-90
2023/06/08 02:49:42;;;;;;;5.80;5.20;;;;;;;;;;5010820;28;20472;-90
2023/06/08 02:52:10;;;;;;;6.80;5.10;;;;;;;;;;5008165;28;20453;-89
2023/06/08 02:54:37;;;;;;;5.50;5.00;;;;;;;;;;5007236;28;20460;-89
2023/06/08 02:59:51;;;;;;;5.33;4.83;;;18.90;99.90;;;;;;5003380;28;20890;-89
2023/06/08 03:02:27;;;;;;;9.20;4.87;;;;;;;;;;5007027;28;20477;-90
2023/06/08 03:04:58;;;;;;;6.00;5.33;;;;;;;;;;5008681;28;20463;-90
2023/06/08 03:07:27;;;;;;;5.63;5.13;;;;;;;;;;5004519;28;20987;-90
2023/06/08 03:10:02;;;;;;;5.23;4.73;;;;;;;;;;5004192;28;20864;-90
2023/06/08 03:46:05;;;;;;;7.77;4.90;;;18.70;99.90;;;;;;5075079;22;20507;-88
2023/06/08 03:48:45;;;;;;;7.63;5.83;;;;;;;;;;5010226;28;20463;-89
2023/06/08 04:27:21;;;;;;;6.70;5.93;;;;;;;;;;5012575;28;20443;-90
2023/06/08 04:29:50;;;;;;;5.20;4.60;;;;;;;;;;5011338;28;20456;-89
2023/06/08 04:32:25;;;;;;;5.13;4.63;;;;;;;;;;5007419;28;20476;-89
2023/06/08 04:34:57;;;;;;;5.83;5.30;;;;;;;;;;5007210;28;20531;-89
2023/06/08 04:40:10;;;;;;;11.27;5.20;;;19.10;99.90;;;;;;5040208;23;20493;-88
2023/06/08 04:42:38;;;;;;;8.73;5.07;;;19.20;99.90;;;;;;5013864;28;20453;-87
2023/06/08 04:45:08;;;;;;;4.90;4.33;;;19.30;99.90;;;;;;5005177;28;21030;-87
2023/06/08 04:47:35;;;;;;;6.77;5.17;;;20.30;99.90;;;;;;5001988;28;21088;-86
2023/06/08 04:50:02;;;;;;;7.80;4.83;;;19.30;99.90;;;;;;5000805;28;20787;-86
2023/06/08 04:52:40;;;;;;;5.20;4.70;;;19.30;99.90;;;;;;5005039;28;20517;-86
2023/06/08 04:55:09;;;;;;;4.93;4.13;;;19.40;99.90;;;;;;5007538;28;20456;-86
2023/06/08 04:57:36;;;;;;;8.70;4.80;;;19.50;99.90;;;;;;5007115;28;20484;-86
2023/06/08 05:00:06;;;;;;;8.80;5.17;;;;;;;;;;5004271;28;20563;-87
2023/06/08 05:02:33;;;;;;;5.40;4.90;;;19.60;99.90;;;;;;5004902;28;20555;-87
2023/06/08 05:05:00;;;;;;;9.30;5.20;;;19.70;99.90;;;;;;5002601;28;20445;-86
2023/06/08 05:07:27;;;;;;;9.03;5.40;;;19.80;99.90;;;;;;5006968;28;20437;-86
2023/06/08 05:09:56;;;;;;;7.53;4.87;;;20.30;1.00;;;;;;5011373;28;20516;-87
2023/06/08 05:12:23;;;;;;;13.13;4.73;;;20.00;99.90;;;;;;5005017;28;20448;-86
2023/06/08 05:14:50;;;;;;;8.87;5.10;;;20.10;99.90;;;;;;5000411;28;20535;-86
2023/06/08 05:17:17;;;;;;;5.73;5.23;;;20.20;99.90;;;;;;5002749;28;20796;-86
2023/06/08 05:19:44;;;;;;;8.43;6.00;;;20.30;99.90;;;;;;5000914;28;20469;-87
2023/06/08 05:22:11;;;;;;;9.03;5.50;;;;;;;;;;5003682;28;20433;-87
2023/06/08 05:24:38;;;;;;;10.97;5.87;;;20.30;1.00;;;;;;5000922;28;20449;-87
2023/06/08 05:27:06;;;;;;;11.43;5.50;;;20.70;1.00;;;;;;5000025;28;20451;-86
2023/06/08 05:29:33;;;;;;;7.30;4.50;;;20.30;1.00;;;;;;4999124;28;20472;-86
2023/06/08 05:32:01;;;;;;;5.17;4.40;;;21.10;1.00;;;;;;4999215;28;20515;-87
2023/06/08 05:34:28;;;;;;;8.93;4.90;;;20.60;99.90;;;;;;5007737;28;20987;-87
2023/06/08 05:36:55;;;;;;;6.93;5.43;;;20.60;99.90;;;;;;5000750;28;20536;-86
2023/06/08 05:39:22;;;;;;;7.73;7.00;;;20.70;99.90;;;;;;4999822;28;20492;-86
2023/06/08 05:41:49;;;;;;;10.90;4.90;;;20.90;1.00;;;;;;5000786;28;20546;-87
2023/06/08 05:44:18;;;;;;;7.20;4.70;;;20.70;99.90;;;;;;4998783;28;20456;-87
2023/06/08 05:46:44;;;;;;;8.13;5.90;;;20.70;99.90;;;;;;4999562;28;20511;-87
2023/06/08 05:49:11;;;;;;;8.07;4.70;;;20.80;99.90;;;;;;4999627;28;20564;-87
2023/06/08 05:51:38;;;;;;;6.53;5.63;;;20.70;99.90;;;;;;4998533;28;20535;-87
2023/06/08 05:54:05;;;;;;;13.70;5.73;;;20.70;99.90;;;;;;5000233;28;20475;-87
2023/06/08 05:56:32;;;;;;;5.63;5.13;;;20.70;99.90;;;;;;4999733;28;20460;-87
2023/06/08 05:58:59;;;;;;;6.70;5.67;;;20.60;99.90;;;;;;5007509;28;20515;-87
2023/06/08 06:01:28;;;;;;;7.33;5.23;;;20.60;99.90;;;;;;5005906;28;20445;-87
2023/06/08 06:03:55;;;;;;;7.47;5.40;;;20.60;99.90;;;;;;5018692;28;20425;-86
2023/06/08 06:06:23;;;;;;;10.30;6.00;;;20.60;99.90;;;;;;5019136;28;20448;-87
2023/06/08 06:11:33;;;;;;;9.90;4.80;;;;;;;;;;5014673;28;20496;-87
2023/06/08 06:14:01;;;;;;;8.73;5.03;;;;;;;;;;5000212;28;20540;-86
2023/06/08 06:16:29;;;;;;;8.03;5.53;;;20.80;99.90;;;;;;5000513;28;20491;-87
2023/06/08 06:18:56;;;;;;;8.90;5.00;;;21.10;1.00;;;;;;5003957;28;21030;-87
2023/06/08 06:21:23;;;;;;;12.27;6.23;;;21.00;99.90;;;;;;5012802;28;20480;-87
2023/06/08 06:23:50;;;;;;;8.60;5.23;;;21.10;99.90;;;;;;5001375;28;20484;-87
2023/06/08 06:26:17;;;;;;;9.93;4.50;;;21.30;99.90;;;;;;5000893;28;20444;-87
2023/06/08 06:28:44;;;;;;;7.33;5.07;;;;;;;;;;5001746;28;20469;-88
2023/06/08 06:31:11;;;;;;;17.20;4.90;;;21.30;1.00;;;;;;4999522;28;20480;-88
2023/06/08 06:33:39;;;;;;;10.10;5.90;;;21.30;99.90;;;;;;5000964;28;20460;-88
2023/06/08 06:36:06;;;;;;;10.73;5.57;;;;;;;;;;5002720;28;20801;-88
2023/06/08 06:38:33;;;;;;;7.27;5.47;;;21.50;99.90;;;;;;4999927;28;21013;-88
2023/06/08 06:41:01;;;;;;;13.53;6.00;;;;;;;;;;5000599;28;20520;-88
2023/06/08 06:43:27;;;;;;;9.40;4.63;;;21.50;99.90;;;;;;5000538;28;20439;-87
2023/06/08 06:45:54;;;;;;;5.83;5.00;;;21.60;99.90;;;;;;4999778;28;20539;-87
2023/06/08 06:48:22;;;;;;;8.97;4.83;;;21.70;99.90;;;;;;4998251;28;20456;-86
2023/06/08 06:50:51;;;;;;;8.00;5.67;;;21.70;99.90;;;;;;4999010;28;20498;-86
2023/06/08 06:53:18;;;;;;;6.17;4.77;;;21.80;99.90;;;;;;5002130;28;20467;-87
2023/06/08 06:55:44;;;;;;;6.73;5.63;;;21.80;99.90;;;;;;4999876;28;20514;-88
2023/06/08 06:58:12;;;;;;;7.17;5.07;;;22.20;1.00;;;;;;5000267;28;20449;-88
2023/06/08 07:00:39;;;;;;;10.17;5.23;;;22.00;99.90;;;;;;4997648;28;20440;-86
2023/06/08 07:03:06;;;;;;;7.50;6.13;;;22.00;99.90;;;;;;4997744;28;20456;-86
2023/06/08 07:05:33;;;;;;;10.30;4.70;;;22.20;99.90;;;;;;4998070;28;20526;-86
2023/06/08 07:08:05;;;;;;;9.03;5.50;;;;;;;;;;5001366;28;20507;-88
2023/06/08 07:10:32;;;;;;;7.40;5.20;;;;;;;;;;5013784;28;20460;-91
2023/06/08 07:12:59;;;;;;;6.23;5.23;;;;;;;;;;5018854;28;20441;-91
2023/06/08 07:15:27;;;;;;;7.30;5.03;;;;;;;;;;5005960;28;20473;-90
2023/06/08 07:17:54;;;;;;;7.90;6.47;;;22.70;99.90;;;;;;5002458;28;20438;-90
2023/06/08 07:20:29;;;;;;;5.90;5.30;;;22.80;99.90;;;;;;5006566;28;20460;-89
2023/06/08 07:22:56;;;;;;;6.10;5.50;;;;;;;;;;5008005;28;20511;-90
2023/06/08 07:25:26;;;;;;;5.13;4.60;;;;;;;;;;5004361;28;20437;-90
2023/06/08 07:27:53;;;;;;;5.60;4.73;;;;;;;;;;5007261;28;20493;-90
2023/06/08 07:30:24;;;;;;;6.40;5.10;;;;;;;;;;5013620;28;20495;-89
2023/06/08 07:32:52;;;;;;;5.03;4.63;;;;;;;;;;5005131;28;20468;-90
2023/06/08 07:35:21;;;;;;;6.80;5.17;;;;;;;;;;5001485;28;20445;-90
2023/06/08 07:38:07;;;;;;;7.23;5.43;;;;;;;;;;5001382;28;20518;-91
2023/06/08 07:40:37;;;;;;;5.47;4.93;;;;;;;;;;5002092;28;20466;-90
2023/06/08 07:43:05;;;;;;;12.23;5.33;;;;;;;;;;5004949;28;20480;-91
2023/06/08 07:45:32;;;;;;;8.13;5.30;;;23.30;99.90;;;;;;5005928;28;20486;-90
2023/06/08 07:47:58;;;;;;;6.90;4.80;;;23.30;99.90;;;;;;5006687;28;20865;-90
2023/06/08 07:50:27;;;;;;;8.20;5.43;;;23.40;99.90;;;;;;5005983;28;20484;-89
2023/06/08 07:52:55;;;;;;;11.43;4.70;;;;;;;;;;5008516;28;20503;-89
2023/06/08 07:55:22;;;;;;;6.20;5.53;;;23.50;99.90;;;;;;5016714;28;20425;-87
2023/06/08 07:57:50;;;;;;;10.83;5.60;;;23.60;99.90;;;;;;5012852;28;20460;-88
2023/06/08 08:00:27;;;;;;;7.23;5.27;;;23.60;1.00;;;;;;5012728;28;20591;-88
2023/06/08 08:02:54;;;;;;;10.63;5.13;;;23.70;99.90;;;;;;5017122;28;20478;-87
2023/06/08 08:05:21;;;;;;;6.43;4.83;;;23.80;99.90;;;;;;5008997;28;20508;-87
2023/06/08 08:07:48;;;;;;;5.47;4.97;;;23.90;99.90;;;;;;5009332;28;20483;-87
2023/06/08 08:10:15;;;;;;;5.83;4.87;;;23.90;99.90;;;;;;5004580;28;20496;-87
2023/06/08 08:12:43;;;;;;;33.93;5.97;;;24.00;99.90;;;;;;5006082;28;20576;-88
2023/06/08 08:15:12;;;;;;;8.57;4.40;;;;;;;;;;5008358;28;20468;-88
2023/06/08 08:17:40;;;;;;;5.30;4.40;;;24.00;1.00;;;;;;5011806;28;20444;-88
2023/06/08 08:20:09;;;;;;;6.43;5.00;;;24.30;99.90;;;;;;5021888;28;20516;-89
2023/06/08 08:22:36;;;;;;;5.40;4.90;;;;;;;;;;5022203;28;20428;-89
2023/06/08 08:25:05;;;;;;;12.00;5.50;;;;;;;;;;5022522;28;20433;-89
2023/06/08 08:27:32;;;;;;;7.67;5.43;;;;;;;;;;5022096;28;20403;-90
2023/06/08 08:29:59;;;;;;;5.93;4.93;;;;;;;;;;5021736;28;20463;-90
2023/06/08 08:32:28;;;;;;;4.97;4.47;;;;;;;;;;5020182;28;20552;-88
2023/06/08 08:34:56;;;;;;;8.50;5.10;;;;;;;;;;5017279;28;20432;-87
2023/06/08 08:37:23;;;;;;;8.40;5.67;;;;;;;;;;5018627;28;20432;-83
2023/06/08 08:39:50;;;;;;;9.37;5.30;;;24.50;99.90;;;;;;5020097;28;20587;-83
2023/06/08 08:42:22;;;;;;;8.80;5.17;;;24.50;99.90;;;;;;5020864;28;20433;-82
2023/06/08 08:44:53;;;;;;;7.37;6.27;;;24.40;99.90;;;;;;5020336;28;20464;-82
2023/06/08 08:47:22;;;;;;;6.60;5.00;;;24.50;99.90;;;;;;5019437;28;20425;-83
2023/06/08 08:49:57;;;;;;;7.50;4.90;;;24.50;99.90;;;;;;5018256;28;20471;-84
2023/06/08 08:52:29;;;;;;;8.13;4.87;;;24.60;99.90;;;;;;5014348;28;20467;-85
2023/06/08 08:54:57;;;;;;;4.67;4.27;;;24.60;99.90;;;;;;5011399;28;20424;-84
2023/06/08 08:57:28;;;;;;;5.17;4.63;;;24.60;99.90;;;;;;5018769;28;20436;-83
2023/06/08 08:59:55;;;;;;;7.63;4.97;;;24.60;99.90;;;;;;5007895;28;20479;-84
2023/06/08 09:02:22;;;;;;;6.40;5.80;;;24.70;99.90;;;;;;5005701;28;20452;-83
2023/06/08 09:04:51;;;;;;;8.83;4.20;;;24.70;99.90;;;;;;5002894;28;20452;-84
2023/06/08 09:07:19;;;;;;;6.03;5.20;;;24.90;99.90;;;;;;5002531;28;20456;-85
2023/06/08 09:10:13;;;;;;;7.57;5.10;;;24.80;99.90;;;;;;5000620;28;20888;-84
2023/06/08 09:12:40;;;;;;;7.30;5.30;;;24.90;99.90;;;;;;5000633;28;20578;-85
2023/06/08 09:15:11;;;;;;;5.50;5.00;;;25.00;99.90;;;;;;5000247;28;20448;-84
2023/06/08 09:17:38;;;;;;;10.77;5.33;;;25.10;99.90;;;;;;5003032;28;20441;-85
2023/06/08 09:20:08;;;;;;;5.70;5.20;;;25.20;99.90;;;;;;5001438;28;20476;-84
2023/06/08 09:22:36;;;;;;;6.77;5.40;;;25.30;99.90;;;;;;5002331;28;20931;-84
2023/06/08 09:25:03;;;;;;;6.13;4.80;;;25.40;99.90;;;;;;5002457;28;20444;-84
2023/06/08 09:27:31;;;;;;;6.23;5.40;;;25.40;99.90;;;;;;5000384;28;20979;-84
2023/06/08 09:29:59;;;;;;;8.37;5.80;;;25.50;99.90;;;;;;5001564;28;21029;-84
2023/06/08 09:32:32;;;;;;;5.97;5.47;;;25.50;99.90;;;;;;5017653;28;20480;-84
2023/06/08 09:35:02;;;;;;;5.40;4.90;;;25.50;99.90;;;;;;5016181;28;20414;-85
2023/06/08 09:37:31;;;;;;;6.17;5.10;;;25.60;99.90;;;;;;5003861;28;20417;-84
2023/06/08 09:39:59;;;;;;;5.33;4.90;;;25.60;99.90;;;;;;5000705;28;21019;-84
2023/06/08 09:42:44;;;;;;;5.50;5.10;;;25.70;99.90;;;;;;5000595;28;20540;-85
2023/06/08 09:45:15;;;;;;;8.30;6.67;;;25.60;99.90;;;;;;5000365;28;20539;-84
2023/06/08 09:47:42;;;;;;;6.13;5.53;;;25.60;99.90;;;;;;5001129;28;20445;-85
2023/06/08 09:50:11;;;;;;;10.00;5.10;;;25.70;99.90;;;;;;5000155;28;20495;-84
2023/06/08 09:52:40;;;;;;;6.03;5.43;;;25.80;99.90;;;;;;5001389;28;20539;-85
2023/06/08 09:55:08;;;;;;;6.70;5.97;;;25.80;99.90;;;;;;4999560;28;20448;-85
2023/06/08 09:57:36;;;;;;;8.10;6.10;;;25.80;99.90;;;;;;5001534;28;21022;-84
2023/06/08 10:03:06;;;;;;;5.90;5.50;;;26.00;99.90;;;;;;5013048;28;20425;-84
2023/06/08 10:05:37;;;;;;;5.50;5.07;;;26.00;99.90;;;;;;5008750;28;20440;-84
2023/06/08 10:11:49;;;;;;;5.27;4.77;;;;;;;;;;4995641;28;20439;-85
2023/06/08 10:14:28;;;;;;;6.43;5.30;;;;;;;;;;5020506;28;20467;-85
2023/06/08 10:16:57;;;;;;;6.00;5.40;;;26.10;99.90;;;;;;5013459;28;20433;-84
2023/06/08 10:19:32;;;;;;;5.63;5.03;;;26.20;99.90;;;;;;5004742;28;21036;-83
2023/06/08 10:22:00;;;;;;;6.37;5.87;;;26.20;99.90;;;;;;5015791;28;20468;-84
2023/06/08 10:24:29;;;;;;;10.07;6.00;;;26.20;99.90;;;;;;5005556;28;20460;-84
2023/06/08 10:27:10;;;;;;;6.17;5.20;;;26.20;99.90;;;;;;5002162;28;20443;-83
2023/06/08 10:29:37;;;;;;;5.90;5.40;;;26.20;99.90;;;;;;5002455;28;20472;-81
2023/06/08 10:32:09;;;;;;;5.47;4.90;;;26.20;99.90;;;;;;5003705;28;20492;-83
2023/06/08 10:34:39;;;;;;;6.70;6.00;;;26.30;99.90;;;;;;5001981;28;20503;-83
2023/06/08 10:37:06;;;;;;;7.37;6.67;;;26.40;99.90;;;;;;5001112;28;20503;-84
2023/06/08 10:39:47;;;;;;;6.23;5.63;;;26.50;99.90;;;;;;5024541;23;20484;-82
2023/06/08 10:42:19;;;;;;;10.77;5.73;;;26.50;99.90;;;;;;5013666;28;20411;-82
2023/06/08 10:44:54;;;;;;;8.43;5.83;;;26.50;99.90;;;;;;5007586;28;20507;-80
2023/06/08 10:47:21;;;;;;;5.97;5.37;;;26.60;99.90;;;;;;4998888;28;20493;-82
2023/06/08 10:49:55;;;;;;;7.30;5.27;;;26.70;99.90;;;;;;5000186;28;20540;-83
2023/06/08 10:52:23;;;;;;;7.03;5.10;;;26.80;99.90;;;;;;5006044;28;20499;-82
2023/06/08 10:54:53;;;;;;;9.20;6.63;;;26.80;99.90;;;;;;5007412;28;20480;-82
2023/06/08 10:57:38;;;;;;;7.80;5.40;;;26.70;99.90;;;;;;5003340;28;20595;-82
2023/06/08 11:00:46;;;;;;;5.90;5.30;;;26.60;99.90;;;;;;5000490;28;20536;-82
2023/06/08 11:03:18;;;;;;;5.67;5.37;;;26.70;99.90;;;;;;5006970;28;20448;-81
2023/06/08 11:05:50;;;;;;;6.57;5.40;;;26.80;99.90;;;;;;5003507;28;20650;-82
2023/06/08 11:08:17;;;;;;;6.23;5.73;;;26.90;99.90;;;;;;5003343;28;20459;-82
2023/06/08 11:10:51;;;;;;;5.47;5.07;;;26.80;99.90;;;;;;5006424;28;20551;-82
2023/06/08 11:13:19;;;;;;;9.43;5.73;;;26.90;99.90;;;;;;5005088;28;20485;-82
2023/06/08 11:15:47;;;;;;;8.80;5.83;;;27.10;1.00;;;;;;5001494;28;20454;-82
2023/06/08 11:18:18;;;;;;;6.03;4.53;;;27.00;99.90;;;;;;5004528;28;20441;-82
2023/06/08 11:20:45;;;;;;;9.90;6.03;;;27.00;99.90;;;;;;5010470;28;20469;-80
2023/06/08 11:23:14;;;;;;;6.27;5.10;;;27.10;99.90;;;;;;5014636;28;20460;-81
2023/06/08 11:25:41;;;;;;;10.00;5.27;;;27.10;99.90;;;;;;5013898;28;20445;-81
2023/06/08 11:28:08;;;;;;;6.10;5.50;;;27.10;99.90;;;;;;5006529;28;20451;-82
2023/06/08 11:30:38;;;;;;;6.63;5.90;;;27.10;99.90;;;;;;5003465;28;20478;-82
2023/06/08 11:33:06;;;;;;;6.67;5.03;;;27.00;1.00;;;;;;5002391;28;20571;-81
2023/06/08 11:35:33;;;;;;;9.60;5.13;;;27.30;99.90;;;;;;5001295;28;20882;-82
2023/06/08 11:38:00;;;;;;;5.87;5.13;;;27.50;99.90;;;;;;5001173;28;20456;-82
2023/06/08 11:40:28;;;;;;;7.13;6.43;;;27.50;99.90;;;;;;5000123;28;20507;-83
2023/06/08 11:42:57;;;;;;;12.63;5.90;;;27.50;99.90;;;;;;5000266;28;20444;-83
2023/06/08 11:45:24;;;;;;;7.33;5.90;;;27.60;99.90;;;;;;5002599;28;20463;-82
2023/06/08 11:47:54;;;;;;;6.63;5.40;;;27.60;99.90;;;;;;5003452;28;20448;-83
2023/06/08 11:50:21;;;;;;;7.77;7.00;;;27.50;99.90;;;;;;5001725;28;20468;-83
2023/06/08 11:52:48;;;;;;;9.20;6.43;;;27.40;99.90;;;;;;5011676;28;20515;-82
2023/06/08 11:55:19;;;;;;;7.73;6.50;;;27.40;99.90;;;;;;5006376;28;20833;-82
2023/06/08 11:57:47;;;;;;;7.77;6.63;;;27.40;99.90;;;;;;5005282;28;20887;-82
2023/06/08 12:00:17;;;;;;;8.90;6.43;;;27.50;99.90;;;;;;4999918;28;20468;-82
2023/06/08 12:02:46;;;;;;;6.63;6.03;;;27.50;99.90;;;;;;5000048;28;20448;-82
2023/06/08 12:05:17;;;;;;;6.60;6.00;;;27.40;99.90;;;;;;5001515;28;20519;-80
2023/06/08 12:07:57;;;;;;;8.90;7.33;;;27.40;99.90;;;;;;5000209;28;20439;-83
2023/06/08 12:10:32;;;;;;;9.37;6.03;;;27.20;99.90;;;;;;5003385;28;20468;-81
2023/06/08 12:12:59;;;;;;;11.93;10.43;;;27.10;99.90;;;;;;5000143;28;20474;-82
2023/06/08 12:15:26;;;;;;;8.83;7.97;;;27.00;99.90;;;;;;5002764;28;20521;-82
2023/06/08 12:17:58;;;;;;;15.80;11.10;;;26.90;99.90;;;;;;5003466;28;20491;-82
2023/06/08 12:20:31;;;;;;;8.40;7.43;;;26.70;99.90;;;;;;5001835;28;20644;-82
2023/06/08 12:22:58;;;;;;;9.03;7.97;;;26.60;99.90;;;;;;5002401;28;20425;-82
2023/06/08 12:25:25;;;;;;;12.00;10.40;;;26.50;99.90;;;;;;5002209;28;20480;-82
2023/06/08 12:27:51;;;;;;;9.33;8.43;;;26.50;99.90;;;;;;5002515;28;20483;-82
2023/06/08 12:30:19;;;;;;;7.90;7.30;;;26.40;99.90;;;;;;5011462;28;20567;-82
2023/06/08 12:32:46;;;;;;;10.70;8.00;;;26.40;99.90;;;;;;5015892;28;20487;-82
2023/06/08 12:35:13;;;;;;;7.87;7.27;;;26.50;99.90;;;;;;5008103;28;21008;-82
2023/06/08 12:37:43;;;;;;;14.87;12.67;;;26.70;99.90;;;;;;5004452;28;20449;-82
2023/06/08 12:40:10;;;;;;;11.80;10.63;;;27.00;99.90;;;;;;5003534;28;20476;-82
2023/06/08 12:42:37;;;;;;;6.50;5.90;;;27.20;99.90;;;;;;5003859;28;20506;-83
2023/06/08 12:45:05;;;;;;;6.40;5.80;;;27.20;99.90;;;;;;5004105;28;20456;-83
2023/06/08 12:47:32;;;;;;;7.00;6.40;;;27.00;1.00;;;;;;5005236;28;20811;-83
2023/06/08 12:49:59;;;;;;;7.67;6.90;;;27.20;99.90;;;;;;5003524;28;20925;-82
2023/06/08 12:52:26;;;;;;;10.20;9.30;;;27.30;99.90;;;;;;5005673;28;20475;-81
2023/06/08 12:54:54;;;;;;;5.93;5.43;;;27.20;99.90;;;;;;5002003;28;20452;-82
2023/06/08 12:57:21;;;;;;;7.03;6.47;;;27.80;1.00;;;;;;5003627;28;20455;-82
2023/06/08 12:59:48;;;;;;;5.77;5.27;;;;;;;;;;5007873;28;20476;-82
2023/06/08 13:02:15;;;;;;;6.93;6.30;;;27.70;99.90;;;;;;5008563;28;20448;-82
2023/06/08 13:04:42;;;;;;;6.27;5.67;;;27.80;99.90;;;;;;5008923;28;20457;-82
2023/06/08 13:07:08;;;;;;;5.80;5.03;;;28.00;99.90;;;;;;5004268;28;20460;-82
2023/06/08 13:09:38;;;;;;;5.80;5.30;;;28.10;99.90;;;;;;5003675;28;20539;-83
2023/06/08 13:12:07;;;;;;;8.27;6.10;;;28.10;99.90;;;;;;5004129;28;20479;-82
2023/06/08 13:14:34;;;;;;;7.13;5.50;;;28.20;1.00;;;;;;5004486;28;20566;-82
2023/06/08 13:17:01;;;;;;;6.20;5.70;;;27.90;99.90;;;;;;5003622;28;20462;-82
2023/06/08 13:19:28;;;;;;;6.83;6.30;;;27.90;99.90;;;;;;5003418;28;20472;-84
2023/06/08 13:21:56;;;;;;;6.57;5.97;;;27.90;99.90;;;;;;5002705;28;20479;-83
2023/06/08 13:24:23;;;;;;;11.03;10.03;;;27.90;99.90;;;;;;5004156;28;20476;-83
2023/06/08 13:26:51;;;;;;;12.80;11.70;;;28.00;99.90;;;;;;5004584;28;20476;-81
2023/06/08 13:29:20;;;;;;;6.90;6.30;;;28.20;1.00;;;;;;5006583;28;20452;-82
2023/06/08 13:31:47;;;;;;;9.73;8.73;;;;;;;;;;5006674;28;20462;-81
2023/06/08 13:34:14;;;;;;;9.53;8.63;;;28.00;99.90;;;;;;5006242;28;20506;-82
2023/06/08 13:36:41;;;;;;;7.10;6.13;;;28.10;99.90;;;;;;5014212;28;20509;-81
2023/06/08 13:39:09;;;;;;;6.90;6.17;;;28.60;1.00;;;;;;5015631;28;20448;-82
2023/06/08 13:41:36;;;;;;;7.37;6.43;;;28.20;99.90;;;;;;5015152;28;20441;-80
2023/06/08 13:44:03;;;;;;;6.00;5.40;;;28.20;99.90;;;;;;5012808;28;20452;-80
2023/06/08 13:46:31;;;;;;;6.53;5.90;;;28.10;1.00;;;;;;5011550;28;20456;-82
2023/06/08 13:48:58;;;;;;;8.00;6.33;;;28.10;99.90;;;;;;5011889;28;20520;-81
2023/06/08 13:51:26;;;;;;;6.93;6.17;;;28.10;99.90;;;;;;5005597;28;20483;-81
2023/06/08 13:53:54;;;;;;;6.03;5.53;;;28.20;99.90;;;;;;5006987;28;20488;-82
2023/06/08 13:56:22;;;;;;;6.77;6.10;;;28.20;99.90;;;;;;5005079;28;20448;-82
2023/06/08 13:58:50;;;;;;;7.80;6.23;;;28.20;99.90;;;;;;5002916;28;20455;-82
2023/06/08 14:01:17;;;;;;;5.97;5.47;;;28.20;99.90;;;;;;5001521;28;20936;-82
2023/06/08 14:03:45;;;;;;;6.53;5.83;;;28.20;99.90;;;;;;5004426;28;20532;-83
2023/06/08 14:06:11;;;;;;;9.03;6.73;;;28.20;99.90;;;;;;5007850;28;20451;-83
2023/06/08 14:08:38;;;;;;;5.90;5.40;;;28.40;1.00;;;;;;5006568;28;20452;-83
2023/06/08 14:11:05;;;;;;;6.10;5.60;;;28.30;99.90;;;;;;5005819;28;20472;-84
2023/06/08 14:13:32;;;;;;;6.53;6.03;;;28.20;99.90;;;;;;5004311;28;20480;-84
2023/06/08 14:15:59;;;;;;;6.23;5.50;;;28.20;99.90;;;;;;5003991;28;20449;-84
2023/06/08 14:18:28;;;;;;;8.60;7.40;;;28.20;99.90;;;;;;5014936;28;20448;-90
2023/06/08 14:20:57;;;;;;;6.87;6.17;;;28.20;99.90;;;;;;5019530;28;20491;-91
2023/06/08 14:23:24;;;;;;;7.03;6.13;;;;;;;;;;5019565;28;20461;-90
2023/06/08 14:25:51;;;;;;;8.67;6.30;;;;;;;;;;5015808;28;20432;-88
2023/06/08 14:28:18;;;;;;;7.83;5.87;;;;;;;;;;5019231;28;20512;-88
2023/06/08 14:30:45;;;;;;;6.30;5.70;;;;;;;;;;5018340;28;20528;-88
2023/06/08 14:33:12;;;;;;;6.10;5.40;;;;;;;;;;5018122;28;20511;-89
2023/06/08 14:35:42;;;;;;;5.60;5.10;;;28.30;99.90;;;;;;5018936;28;20513;-89
2023/06/08 14:38:11;;;;;;;6.33;5.77;;;28.30;99.90;;;;;;5019426;28;20429;-89
2023/06/08 14:40:38;;;;;;;5.60;5.10;;;;;;;;;;5019048;28;20484;-90
2023/06/08 14:43:05;;;;;;;6.30;5.70;;;;;;;;;;5018776;28;20437;-88
2023/06/08 14:45:32;;;;;;;5.60;5.10;;;;;;;;;;5006291;28;20968;-88
2023/06/08 14:47:59;;;;;;;6.10;5.50;;;;;;;;;;5004626;28;20452;-88
2023/06/08 14:50:28;;;;;;;5.90;5.40;;;;;;;;;;5000829;28;20454;-88
2023/06/08 14:52:55;;;;;;;6.80;6.10;;;;;;;;;;5000635;28;20448;-88
2023/06/08 14:55:23;;;;;;;6.27;5.77;;;28.30;99.90;;;;;;5001644;28;20521;-88
2023/06/08 14:57:52;;;;;;;6.90;6.17;;;;;;;;;;5000814;28;20436;-88
2023/06/08 15:00:20;;;;;;;6.33;5.83;;;;;;;;;;5004846;28;20489;-89
2023/06/08 15:02:47;;;;;;;8.83;6.37;;;;;;;;;;5010520;28;20508;-90
2023/06/08 15:05:16;;;;;;;11.00;8.20;;;;;;;;;;5010422;28;20476;-90
2023/06/08 15:07:45;;;;;;;7.30;6.80;;;;;;;;;;5005384;28;20523;-88
2023/06/08 15:10:13;;;;;;;6.07;5.23;;;;;;;;;;5011864;28;20533;-89
2023/06/08 15:12:41;;;;;;;6.37;5.77;;;28.10;99.90;;;;;;5012125;28;20446;-88
2023/06/08 15:15:09;;;;;;;6.30;5.50;;;27.50;1.00;;;;;;5010307;28;20488;-87
2023/06/08 15:17:37;;;;;;;7.30;6.70;;;27.90;99.90;;;;;;5010152;28;20448;-89
2023/06/08 15:20:06;;;;;;;6.97;6.47;;;27.80;99.90;;;;;;5007170;28;20472;-88
2023/06/08 15:22:33;;;;;;;9.83;7.27;;;;;;;;;;5014868;28;20508;-88
2023/06/08 15:25:00;;;;;;;5.53;5.03;;;27.40;1.00;;;;;;5014841;28;20433;-88
2023/06/08 15:27:29;;;;;;;6.70;5.67;;;;;;;;;;5015587;28;20483;-88
2023/06/08 15:29:58;;;;;;;5.80;5.33;;;28.10;1.00;;;;;;5010431;28;20460;-89
2023/06/08 15:32:25;;;;;;;6.20;5.70;;;;;;;;;;5008743;28;20505;-90
2023/06/08 15:34:55;;;;;;;6.10;5.60;;;27.70;99.90;;;;;;5005914;28;20498;-90
2023/06/08 15:37:28;;;;;;;6.30;5.70;;;27.50;1.00;;;;;;5010016;28;20456;-89
2023/06/08 15:39:55;;;;;;;7.00;6.20;;;;;;;;;;5004439;28;20476;-88
2023/06/08 15:42:23;;;;;;;8.17;7.47;;;;;;;;;;5005313;28;20524;-88
2023/06/08 15:44:50;;;;;;;10.77;8.47;;;;;;;;;;5003575;28;20452;-89